Terminal Aerodrome Forecast
Issued by NWS

Home | Current Version | Previous Version | Text Only | Print | Product List | Glossary On
Versions: 1 2 3 4 5 6 7 8 9 10 11 12 13 14 15 16 17 18 19 20 21 22 23 24 25 26 27 28 29 30 31 32 33 34 35
230
FTUS46 KLOX 050238 AAA
TAFLAX
TAF AMD
KLAX 050238Z 0503/0606 26012KT P6SM BKN015 BKN150
     FM050500 VRB03KT P6SM BKN015 OVC025
     FM051700 24007KT P6SM SCT015 OVC025
     FM052000 26012KT P6SM BKN025 OVC050
     FM060500 VRB03KT P6SM SCT025 BKN050=

USA.gov is the U.S. government's official web portal to all federal, state and local government web resources and services.